createdAt,value
2022-12-03T00:00:23.438Z,102388.47
2022-12-03T00:05:22.701Z,102404.84
2022-12-03T00:10:20.597Z,102411.75
2022-12-03T00:15:18.791Z,102408.31
2022-12-03T00:20:19.704Z,102410.88
2022-12-03T00:25:19.336Z,102407.47
2022-12-03T00:30:17.430Z,102408.31
2022-12-03T00:35:15.455Z,102414.28
2022-12-03T00:40:13.905Z,102412.63
2022-12-03T00:45:13.872Z,102416.94
2022-12-03T00:50:12.107Z,102420.34
2022-12-03T00:55:10.455Z,102428.97
2022-12-03T01:00:09.282Z,102422.97
2022-12-03T01:05:09.222Z,102420.38
2022-12-03T01:10:08.005Z,102421.25
2022-12-03T01:15:06.515Z,102427.25
2022-12-03T01:20:04.989Z,102431.59
2022-12-03T01:25:04.822Z,102431.59
2022-12-03T01:30:02.752Z,102445.38
2022-12-03T01:35:00.590Z,102442.78
2022-12-03T01:39:58.383Z,102450.53
2022-12-03T01:44:58.792Z,102447.97
2022-12-03T01:49:58.905Z,102447.09
2022-12-03T01:55:00.329Z,102446.22
2022-12-03T02:00:01.277Z,102437.63
2022-12-03T02:05:06.335Z,102441.94
2022-12-03T02:10:05.717Z,102441.09
2022-12-03T02:15:06.292Z,102441.06
2022-12-03T02:20:05.499Z,102452.25
2022-12-03T02:25:10.444Z,102446.22
2022-12-03T02:30:09.196Z,102451.38
2022-12-03T02:35:07.794Z,102460.00
2022-12-03T02:40:07.979Z,102460.88
2022-12-03T02:45:09.588Z,102459.16
2022-12-03T02:50:08.266Z,102455.72
2022-12-03T02:55:07.379Z,102453.13
2022-12-03T03:00:05.829Z,102453.13
2022-12-03T03:05:07.274Z,102455.72
2022-12-03T03:10:06.422Z,102453.13
2022-12-03T03:15:04.748Z,102457.44
2022-12-03T03:20:02.835Z,102458.25
2022-12-03T03:25:02.465Z,102459.13
2022-12-03T03:30:00.788Z,102457.44
2022-12-03T03:34:58.690Z,102460.84
2022-12-03T03:39:56.703Z,102471.22
2022-12-03T03:44:56.134Z,102476.38
2022-12-03T03:49:54.360Z,102471.22
2022-12-03T03:54:52.970Z,102473.78
2022-12-03T03:59:51.143Z,102478.06
2022-12-03T04:04:50.562Z,102483.25
2022-12-03T04:09:48.737Z,102477.22
2022-12-03T04:14:46.718Z,102476.34
2022-12-03T04:19:44.825Z,102479.81
2022-12-03T04:24:44.316Z,102478.06
2022-12-03T04:29:41.161Z,102479.81
2022-12-03T04:34:56.793Z,102485.81
2022-12-03T04:39:56.500Z,102490.97
2022-12-03T04:44:54.567Z,102491.84
2022-12-03T04:49:53.153Z,102494.44
2022-12-03T04:54:51.382Z,102502.22
2022-12-03T04:59:51.035Z,102503.94
2022-12-03T05:04:48.994Z,102504.81
2022-12-03T05:09:46.871Z,102506.53
2022-12-03T05:14:44.871Z,102502.13
2022-12-03T05:20:01.904Z,102508.06
2022-12-03T05:25:02.660Z,102510.63
2022-12-03T05:30:00.529Z,102515.78
2022-12-03T05:34:59.806Z,102524.50
2022-12-03T05:39:57.819Z,102523.69
2022-12-03T05:44:56.025Z,102526.25
2022-12-03T05:49:54.284Z,102527.16
2022-12-03T05:54:54.022Z,102529.78
2022-12-03T05:59:53.185Z,102535.78
2022-12-03T06:04:51.240Z,102547.00
2022-12-03T06:09:49.407Z,102547.88
2022-12-03T06:14:48.683Z,102553.91
2022-12-03T06:19:46.559Z,102557.31
2022-12-03T06:24:44.558Z,102564.25
2022-12-03T06:29:42.820Z,102559.09
2022-12-03T06:34:42.285Z,102559.16
2022-12-03T06:39:40.323Z,102565.22
2022-12-03T06:44:38.283Z,102577.06
2022-12-03T06:49:36.388Z,102574.47
2022-12-03T06:54:35.852Z,102573.75
2022-12-03T06:59:36.081Z,102566.84
2022-12-03T07:04:34.167Z,102574.59
2022-12-03T07:09:31.997Z,102581.53
2022-12-03T07:14:31.256Z,102574.59
2022-12-03T07:19:32.462Z,102562.59
2022-12-03T07:24:30.815Z,102577.13
2022-12-03T07:29:28.770Z,102568.59
2022-12-03T07:34:28.160Z,102567.78
2022-12-03T07:39:33.848Z,102566.09
2022-12-03T07:44:32.827Z,102568.69
2022-12-03T07:49:32.266Z,102561.81
2022-12-03T07:54:31.378Z,102573.00
2022-12-03T07:59:29.664Z,102574.75
2022-12-03T08:04:27.849Z,102575.63
2022-12-03T08:09:27.206Z,102588.56
2022-12-03T08:14:25.932Z,102598.91
2022-12-03T08:19:24.103Z,102609.28
2022-12-03T08:24:22.611Z,102601.53
2022-12-03T08:29:21.927Z,102599.78
2022-12-03T08:34:21.399Z,102594.59
2022-12-03T08:39:27.351Z,102592.88
2022-12-03T08:44:27.601Z,102590.31
2022-12-03T08:49:25.610Z,102586.84
2022-12-03T08:54:24.048Z,102585.13
2022-12-03T08:59:25.911Z,102591.91
2022-12-03T09:04:27.675Z,102578.00
2022-12-03T09:09:26.017Z,102579.91
2022-12-03T09:14:24.189Z,102560.94
2022-12-03T09:19:22.610Z,102557.53
2022-12-03T09:24:22.356Z,102567.88
2022-12-03T09:29:20.210Z,102573.94
2022-12-03T09:34:18.220Z,102569.56
2022-12-03T09:39:16.179Z,102568.72
2022-12-03T09:44:18.026Z,102570.47
2022-12-03T09:49:18.125Z,102560.09
2022-12-03T09:54:24.356Z,102558.38
2022-12-03T09:59:24.302Z,102561.00
2022-12-03T10:04:22.609Z,102559.28
2022-12-03T10:09:25.122Z,102552.34
2022-12-03T10:14:24.876Z,102546.25
2022-12-03T10:19:24.290Z,102547.13
2022-12-03T10:24:23.836Z,102548.91
2022-12-03T10:29:25.728Z,102547.16
2022-12-03T10:34:31.952Z,102545.44
2022-12-03T10:39:30.191Z,102548.03
2022-12-03T10:44:30.829Z,102540.25
2022-12-03T10:49:30.107Z,102537.69
2022-12-03T10:54:32.894Z,102543.72
2022-12-03T10:59:33.889Z,102529.91
2022-12-03T11:04:36.938Z,102534.22
2022-12-03T11:09:35.890Z,102535.03
2022-12-03T11:14:54.028Z,102531.56
2022-12-03T11:20:29.698Z,102540.25
2022-12-03T11:25:50.746Z,102539.41
2022-12-03T11:30:59.183Z,102533.38
2022-12-03T11:36:15.409Z,102524.75
2022-12-03T11:41:15.905Z,102533.38
2022-12-03T11:46:14.133Z,102528.22
2022-12-03T11:51:14.883Z,102522.19
2022-12-03T11:56:18.839Z,102528.22
2022-12-03T12:01:19.564Z,102529.06
2022-12-03T12:06:42.500Z,102527.34
2022-12-03T12:11:43.870Z,102528.19
2022-12-03T12:16:50.900Z,102518.69
2022-12-03T12:21:50.403Z,102521.28
2022-12-03T12:26:52.717Z,102517.00
2022-12-03T12:31:53.944Z,102525.56
2022-12-03T12:36:52.703Z,102523.88
2022-12-03T12:41:51.762Z,102525.56
2022-12-03T12:46:53.551Z,102529.91
2022-12-03T12:51:51.814Z,102538.56
2022-12-03T12:56:51.185Z,102535.94
2022-12-03T13:01:50.308Z,102532.50
2022-12-03T13:06:50.856Z,102535.09
2022-12-03T13:11:52.961Z,102542.00
2022-12-03T13:16:51.926Z,102544.59
2022-12-03T13:21:52.145Z,102554.09
2022-12-03T13:26:50.182Z,102550.63
2022-12-03T13:31:51.254Z,102551.47
2022-12-03T13:36:57.134Z,102560.06
2022-12-03T13:42:16.143Z,102550.59
2022-12-03T13:47:16.252Z,102559.22
2022-12-03T13:52:20.077Z,102557.50
2022-12-03T13:57:22.223Z,102569.59
2022-12-03T14:02:21.485Z,102566.09
2022-12-03T14:07:19.496Z,102562.72
2022-12-03T14:12:33.969Z,102564.41
2022-12-03T14:17:33.359Z,102567.00
2022-12-03T14:22:31.648Z,102566.97
2022-12-03T14:27:29.545Z,102562.69
2022-12-03T14:32:27.408Z,102567.88
2022-12-03T14:37:26.570Z,102564.41
2022-12-03T14:42:24.444Z,102570.38
2022-12-03T14:47:23.620Z,102576.44
2022-12-03T14:52:21.639Z,102569.59
2022-12-03T14:57:21.373Z,102568.72
2022-12-03T15:02:19.309Z,102583.38
2022-12-03T15:07:17.980Z,102593.59
2022-12-03T15:12:16.082Z,102594.41
2022-12-03T15:17:15.416Z,102604.81
2022-12-03T15:22:13.440Z,102592.78
2022-12-03T15:27:11.292Z,102591.06
2022-12-03T15:32:09.129Z,102593.66
2022-12-03T15:37:09.313Z,102599.66
2022-12-03T15:42:07.215Z,102601.41
2022-12-03T15:47:05.198Z,102608.28
2022-12-03T15:52:03.016Z,102615.13
2022-12-03T15:57:02.227Z,102607.25
2022-12-03T16:02:00.218Z,102617.66
2022-12-03T16:06:58.101Z,102616.03
2022-12-03T16:11:58.238Z,102615.94
2022-12-03T16:16:59.012Z,102629.53
2022-12-03T16:21:57.672Z,102630.41
2022-12-03T16:26:55.757Z,102627.91
2022-12-03T16:31:54.047Z,102627.91
2022-12-03T16:36:53.464Z,102633.84
2022-12-03T16:41:51.628Z,102629.50
2022-12-03T16:46:50.042Z,102635.66
2022-12-03T16:51:49.216Z,102640.72
2022-12-03T16:56:49.632Z,102649.41
2022-12-03T17:01:47.802Z,102651.16
2022-12-03T17:06:45.695Z,102654.63
2022-12-03T17:11:43.649Z,102652.06
2022-12-03T17:16:43.113Z,102655.50
2022-12-03T17:21:41.403Z,102663.09
2022-12-03T17:26:39.456Z,102670.91
2022-12-03T17:31:41.915Z,102668.34
2022-12-03T17:36:42.038Z,102679.50
2022-12-03T17:41:40.003Z,102679.44
2022-12-03T17:46:38.124Z,102680.25
2022-12-03T17:51:36.815Z,102685.91
2022-12-03T17:56:36.491Z,102690.31
2022-12-03T18:01:35.108Z,102697.53
2022-12-03T18:06:33.230Z,102694.84
2022-12-03T18:11:31.488Z,102703.34
2022-12-03T18:16:31.245Z,102709.63
2022-12-03T18:21:29.441Z,102699.00
2022-12-03T18:26:28.395Z,102702.34
2022-12-03T18:31:26.417Z,102704.78
2022-12-03T18:36:29.940Z,102701.38
2022-12-03T18:41:30.460Z,102711.75
2022-12-03T18:46:52.591Z,102700.63
2022-12-03T18:51:48.946Z,102703.97
2022-12-03T18:56:47.651Z,102707.97
2022-12-03T19:01:45.673Z,102709.78
2022-12-03T19:06:43.626Z,102713.13
2022-12-03T19:11:42.947Z,102714.88
2022-12-03T19:16:41.727Z,102689.09
2022-12-03T19:21:39.735Z,102716.41
2022-12-03T19:26:37.914Z,102730.50
2022-12-03T19:31:37.709Z,102729.47
2022-12-03T19:36:36.467Z,102725.06
2022-12-03T19:41:34.393Z,102735.13
2022-12-03T19:46:33.019Z,102731.72
2022-12-03T19:51:35.448Z,102741.50
2022-12-03T19:56:34.293Z,102729.31
2022-12-03T20:01:33.365Z,102739.50
2022-12-03T20:06:33.936Z,102744.69
2022-12-03T20:11:37.362Z,102746.50
2022-12-03T20:16:37.296Z,102741.16
2022-12-03T20:21:40.207Z,102746.53
2022-12-03T20:26:41.620Z,102744.31
2022-12-03T20:31:44.797Z,102738.03
2022-12-03T20:36:44.650Z,102742.28
2022-12-03T20:41:45.465Z,102750.53
2022-12-03T20:46:53.309Z,102752.63
2022-12-03T20:52:01.109Z,102745.59
2022-12-03T20:57:02.546Z,102756.75
2022-12-03T21:02:03.685Z,102755.34
2022-12-03T21:07:04.095Z,102745.28
2022-12-03T21:12:04.603Z,102756.75
2022-12-03T21:17:10.279Z,102759.81
2022-12-03T21:22:09.772Z,102750.50
2022-12-03T21:27:08.457Z,102749.56
2022-12-03T21:32:09.504Z,102761.88
2022-12-03T21:37:12.285Z,102761.81
2022-12-03T21:42:34.687Z,102754.44
2022-12-03T21:47:32.120Z,102763.38
2022-12-03T21:52:36.656Z,102763.22
2022-12-03T21:57:40.141Z,102764.00
2022-12-03T22:02:39.248Z,102764.13
2022-12-03T22:07:39.448Z,102773.72
2022-12-03T22:12:37.636Z,102762.97
2022-12-03T22:17:36.343Z,102769.50
2022-12-03T22:22:34.781Z,102765.69
2022-12-03T22:27:34.161Z,102766.06
2022-12-03T22:32:32.117Z,102753.56
2022-12-03T22:37:30.435Z,102755.31
2022-12-03T22:42:28.635Z,102752.69
2022-12-03T22:47:28.354Z,102749.16
2022-12-03T22:52:26.564Z,102753.84
2022-12-03T22:57:24.476Z,102746.25
2022-12-03T23:02:22.496Z,102748.78
2022-12-03T23:07:22.034Z,102747.28
2022-12-03T23:12:19.946Z,102737.00
2022-12-03T23:17:18.697Z,102739.41
2022-12-03T23:22:16.883Z,102731.09
2022-12-03T23:27:16.268Z,102738.91
2022-12-03T23:32:14.325Z,102731.94
2022-12-03T23:37:12.854Z,102739.75
2022-12-03T23:42:11.128Z,102749.13
2022-12-03T23:47:12.554Z,102740.25
2022-12-03T23:52:10.717Z,102739.31
2022-12-03T23:57:09.552Z,102741.88
